createdAt,value
2023-03-24T00:00:05.893Z,93.32
2023-03-24T00:02:37.494Z,92.51
2023-03-24T00:05:05.461Z,92.42
2023-03-24T00:07:35.285Z,93.25
2023-03-24T00:10:02.359Z,92.59
2023-03-24T00:12:29.057Z,92.67
2023-03-24T00:14:55.681Z,93.02
2023-03-24T00:17:25.368Z,92.97
2023-03-24T00:19:52.538Z,93.43
2023-03-24T00:22:21.208Z,92.42
2023-03-24T00:24:49.549Z,93.13
2023-03-24T00:27:18.567Z,92.70
2023-03-24T00:29:45.276Z,93.18
2023-03-24T00:32:11.900Z,92.54
2023-03-24T00:34:38.668Z,92.93
2023-03-24T00:37:06.369Z,92.58
2023-03-24T00:39:33.215Z,92.48
2023-03-24T00:42:01.710Z,93.40
2023-03-24T00:44:28.464Z,92.42
2023-03-24T00:46:57.577Z,92.76
2023-03-24T00:49:47.968Z,92.51
2023-03-24T00:52:20.854Z,92.48
2023-03-24T00:54:49.208Z,93.40
2023-03-24T00:57:23.345Z,93.21
2023-03-24T00:59:51.130Z,93.32
2023-03-24T01:02:24.941Z,92.96
2023-03-24T01:04:56.415Z,93.50
2023-03-24T01:07:25.299Z,93.22
2023-03-24T01:09:57.289Z,93.34
2023-03-24T01:12:30.015Z,93.25
2023-03-24T01:15:00.077Z,92.80
2023-03-24T01:17:27.164Z,93.11
2023-03-24T01:19:54.555Z,92.47
2023-03-24T01:22:21.812Z,93.00
2023-03-24T01:24:49.630Z,92.60
2023-03-24T01:27:16.220Z,92.96
2023-03-24T01:29:42.888Z,93.51
2023-03-24T01:32:09.502Z,93.05
2023-03-24T01:34:35.960Z,92.54
2023-03-24T01:37:02.441Z,93.05
2023-03-24T01:39:29.774Z,93.26
2023-03-24T01:41:56.900Z,93.45
2023-03-24T01:44:32.864Z,93.34
2023-03-24T01:47:00.766Z,93.00
2023-03-24T01:49:41.897Z,93.14
2023-03-24T01:52:20.683Z,93.02
2023-03-24T01:54:51.745Z,92.73
2023-03-24T01:57:23.933Z,92.89
2023-03-24T01:59:53.286Z,93.30
2023-03-24T02:02:22.018Z,92.91
2023-03-24T02:05:02.263Z,92.75
2023-03-24T02:07:34.743Z,93.10
2023-03-24T02:10:05.192Z,92.92
2023-03-24T02:12:32.867Z,93.23
2023-03-24T02:15:28.053Z,93.88
2023-03-24T02:18:21.912Z,93.79
2023-03-24T02:21:13.039Z,93.13
2023-03-24T02:24:04.057Z,93.84
2023-03-24T02:26:53.832Z,92.94
2023-03-24T02:29:23.281Z,93.68
2023-03-24T02:32:38.212Z,92.93
2023-03-24T02:35:42.057Z,93.35
2023-03-24T02:38:53.915Z,93.41
2023-03-24T02:41:30.977Z,93.53
2023-03-24T02:44:06.719Z,93.98
2023-03-24T02:46:43.408Z,93.83
2023-03-24T02:49:16.162Z,93.70
2023-03-24T02:52:04.921Z,92.97
2023-03-24T02:55:02.749Z,93.46
2023-03-24T02:58:01.326Z,93.78
2023-03-24T03:00:48.612Z,94.21
2023-03-24T03:03:23.495Z,94.24
2023-03-24T03:05:59.296Z,93.88
2023-03-24T03:08:28.776Z,93.66
2023-03-24T03:10:57.575Z,94.14
2023-03-24T03:13:39.586Z,94.67
2023-03-24T03:16:14.091Z,94.77
2023-03-24T03:18:51.770Z,94.00
2023-03-24T03:21:23.955Z,94.29
2023-03-24T03:24:06.156Z,93.61
2023-03-24T03:26:34.130Z,93.84
2023-03-24T03:29:06.408Z,94.54
2023-03-24T03:31:41.650Z,94.12
2023-03-24T03:34:17.681Z,94.02
2023-03-24T03:37:03.728Z,93.81
2023-03-24T03:39:37.580Z,94.11
2023-03-24T03:42:06.650Z,94.70
2023-03-24T03:44:33.370Z,94.18
2023-03-24T03:47:00.178Z,93.81
2023-03-24T03:49:26.953Z,94.58
2023-03-24T03:51:55.660Z,94.59
2023-03-24T03:54:25.784Z,93.88
2023-03-24T03:56:53.968Z,94.26
2023-03-24T03:59:27.005Z,94.36
2023-03-24T04:01:53.823Z,93.85
2023-03-24T04:04:59.784Z,94.48
2023-03-24T04:07:45.962Z,94.54
2023-03-24T04:10:40.223Z,93.91
2023-03-24T04:13:34.213Z,94.23
2023-03-24T04:16:08.422Z,93.66
2023-03-24T04:18:52.252Z,94.43
2023-03-24T04:21:43.430Z,94.55
2023-03-24T04:24:27.215Z,94.18
2023-03-24T04:27:00.817Z,94.62
2023-03-24T04:29:42.169Z,94.14
2023-03-24T04:32:30.341Z,94.33
2023-03-24T04:35:02.635Z,93.85
2023-03-24T04:37:33.248Z,95.16
2023-03-24T04:40:06.010Z,94.64
2023-03-24T04:42:46.553Z,95.09
2023-03-24T04:45:16.915Z,94.82
2023-03-24T04:47:50.849Z,94.92
2023-03-24T04:50:37.553Z,94.77
2023-03-24T04:53:06.187Z,94.64
2023-03-24T04:55:48.000Z,94.89
2023-03-24T04:58:15.312Z,95.06
2023-03-24T05:00:43.944Z,95.30
2023-03-24T05:03:14.842Z,95.27
2023-03-24T05:05:48.128Z,94.91
2023-03-24T05:08:16.373Z,94.67
2023-03-24T05:10:43.570Z,94.42
2023-03-24T05:13:10.667Z,94.49
2023-03-24T05:15:37.361Z,95.01
2023-03-24T05:18:04.956Z,94.73
2023-03-24T05:20:34.704Z,95.62
2023-03-24T05:23:01.851Z,95.29
2023-03-24T05:25:28.513Z,94.74
2023-03-24T05:27:55.491Z,94.37
2023-03-24T05:30:22.364Z,95.08
2023-03-24T05:32:49.058Z,94.75
2023-03-24T05:35:15.947Z,94.87
2023-03-24T05:37:42.769Z,95.23
2023-03-24T05:40:09.852Z,95.00
2023-03-24T05:42:36.572Z,94.46
2023-03-24T05:45:04.428Z,94.95
2023-03-24T05:47:31.218Z,95.29
2023-03-24T05:49:57.887Z,95.38
2023-03-24T05:52:25.227Z,95.41
2023-03-24T05:54:52.937Z,95.37
2023-03-24T05:57:20.406Z,95.06
2023-03-24T05:59:47.544Z,94.92
2023-03-24T06:02:14.636Z,95.05
2023-03-24T06:04:46.075Z,94.78
2023-03-24T06:07:13.211Z,95.07
2023-03-24T06:09:42.426Z,95.39
2023-03-24T06:12:10.213Z,94.96
2023-03-24T06:14:36.938Z,95.15
2023-03-24T06:17:03.580Z,95.51
2023-03-24T06:19:32.747Z,95.25
2023-03-24T06:22:00.391Z,94.97
2023-03-24T06:24:27.187Z,94.84
2023-03-24T06:26:58.932Z,94.80
2023-03-24T06:29:25.584Z,94.92
2023-03-24T06:31:52.232Z,95.47
2023-03-24T06:34:18.868Z,95.10
2023-03-24T06:36:45.556Z,95.00
2023-03-24T06:39:12.194Z,95.16
2023-03-24T06:41:38.855Z,95.23
2023-03-24T06:44:08.506Z,95.28
2023-03-24T06:46:36.210Z,95.47
2023-03-24T06:49:03.657Z,95.15
2023-03-24T06:51:30.347Z,95.21
2023-03-24T06:53:57.871Z,95.05
2023-03-24T06:56:24.610Z,95.44
2023-03-24T06:58:51.568Z,95.28
2023-03-24T07:01:18.301Z,95.20
2023-03-24T07:03:45.275Z,95.26
2023-03-24T07:06:12.088Z,95.17
2023-03-24T07:08:39.022Z,95.02
2023-03-24T07:11:08.724Z,94.99
2023-03-24T07:13:35.952Z,94.77
2023-03-24T07:16:02.928Z,94.83
2023-03-24T07:18:29.767Z,94.32
2023-03-24T07:20:56.558Z,94.07
2023-03-24T07:23:25.051Z,93.63
2023-03-24T07:25:51.937Z,93.58
2023-03-24T07:28:18.781Z,92.86
2023-03-24T07:30:45.795Z,93.21
2023-03-24T07:33:12.626Z,93.28
2023-03-24T07:35:40.160Z,92.99
2023-03-24T07:38:07.156Z,92.33
2023-03-24T07:40:35.398Z,92.42
2023-03-24T07:43:07.476Z,90.56
2023-03-24T07:45:34.562Z,91.04
2023-03-24T07:48:04.142Z,90.23
2023-03-24T07:50:31.683Z,90.63
2023-03-24T07:53:00.233Z,90.64
2023-03-24T07:55:27.219Z,88.68
2023-03-24T07:57:54.447Z,88.31
2023-03-24T08:00:22.410Z,89.76
2023-03-24T08:02:52.169Z,90.05
2023-03-24T08:05:20.701Z,89.34
2023-03-24T08:07:55.505Z,88.41
2023-03-24T08:10:25.374Z,87.99
2023-03-24T08:12:52.448Z,87.91
2023-03-24T08:15:19.622Z,87.07
2023-03-24T08:17:48.363Z,86.19
2023-03-24T08:20:15.582Z,85.19
2023-03-24T08:22:44.710Z,84.95
2023-03-24T08:25:13.072Z,85.96
2023-03-24T08:27:40.702Z,85.40
2023-03-24T08:30:10.432Z,84.30
2023-03-24T08:32:37.657Z,84.33
2023-03-24T08:35:05.139Z,85.05
2023-03-24T08:37:31.938Z,85.21
2023-03-24T08:39:58.911Z,85.77
2023-03-24T08:42:26.043Z,84.90
2023-03-24T08:44:53.040Z,82.35
2023-03-24T08:47:19.751Z,82.50
2023-03-24T08:49:46.384Z,82.96
2023-03-24T08:52:13.047Z,83.18
2023-03-24T08:54:39.736Z,82.44
2023-03-24T08:57:06.638Z,82.90
2023-03-24T08:59:33.338Z,81.79
2023-03-24T09:01:59.991Z,82.49
2023-03-24T09:04:27.275Z,81.73
2023-03-24T09:07:02.314Z,82.07
2023-03-24T09:09:30.317Z,81.18
2023-03-24T09:11:57.051Z,81.03
2023-03-24T09:14:24.064Z,81.71
2023-03-24T09:16:51.277Z,80.32
2023-03-24T09:19:18.460Z,79.01
2023-03-24T09:21:46.786Z,80.23
2023-03-24T09:24:14.147Z,76.64
2023-03-24T09:26:41.377Z,77.62
2023-03-24T09:29:08.266Z,78.07
2023-03-24T09:31:34.982Z,78.56
2023-03-24T09:34:04.234Z,77.66
2023-03-24T09:36:31.348Z,77.69
2023-03-24T09:38:58.087Z,78.19
2023-03-24T09:41:28.956Z,79.29
2023-03-24T09:44:03.439Z,78.11
2023-03-24T09:46:44.288Z,79.13
2023-03-24T09:49:16.607Z,77.72
2023-03-24T09:51:45.400Z,77.42
2023-03-24T09:54:22.260Z,77.28
2023-03-24T09:56:51.526Z,77.12
2023-03-24T09:59:21.812Z,76.75
2023-03-24T10:01:49.456Z,75.83
2023-03-24T10:04:21.410Z,76.95
2023-03-24T10:06:53.613Z,77.09
2023-03-24T10:09:28.489Z,76.55
2023-03-24T10:11:55.168Z,76.46
2023-03-24T10:14:46.412Z,75.53
2023-03-24T10:17:37.122Z,73.80
2023-03-24T10:20:34.081Z,74.19
2023-03-24T10:23:16.958Z,74.42
2023-03-24T10:25:51.290Z,72.92
2023-03-24T10:28:27.847Z,71.82
2023-03-24T10:30:59.922Z,73.78
2023-03-24T10:33:27.186Z,72.75
2023-03-24T10:36:07.152Z,72.93
2023-03-24T10:38:34.577Z,72.73
2023-03-24T10:41:02.020Z,71.13
2023-03-24T10:43:29.657Z,70.36
2023-03-24T10:45:58.608Z,70.12
2023-03-24T10:48:46.594Z,70.57
2023-03-24T10:51:19.637Z,68.22
2023-03-24T10:53:50.586Z,67.78
2023-03-24T10:56:39.399Z,67.81
2023-03-24T10:59:37.054Z,66.51
2023-03-24T11:02:09.570Z,67.04
2023-03-24T11:04:43.746Z,67.96
2023-03-24T11:07:20.919Z,67.92
2023-03-24T11:10:00.287Z,68.63
2023-03-24T11:12:29.527Z,69.51
2023-03-24T11:15:23.005Z,69.33
2023-03-24T11:18:07.076Z,67.53
2023-03-24T11:21:06.038Z,67.64
2023-03-24T11:23:37.625Z,68.93
2023-03-24T11:26:22.643Z,69.32
2023-03-24T11:28:58.145Z,69.86
2023-03-24T11:31:31.933Z,69.77
2023-03-24T11:34:09.203Z,70.93
2023-03-24T11:37:03.377Z,70.67
2023-03-24T11:39:32.813Z,70.99
2023-03-24T11:42:16.996Z,71.77
2023-03-24T11:44:49.905Z,68.76
2023-03-24T11:47:31.822Z,67.49
2023-03-24T11:50:10.790Z,67.01
2023-03-24T11:52:50.525Z,65.60
2023-03-24T11:55:23.693Z,66.67
2023-03-24T11:58:01.352Z,66.13
2023-03-24T12:00:41.274Z,67.14
2023-03-24T12:03:18.245Z,65.65
2023-03-24T12:05:51.055Z,65.54
2023-03-24T12:08:26.405Z,66.17
2023-03-24T12:11:06.992Z,64.07
2023-03-24T12:13:40.910Z,62.76
2023-03-24T12:16:40.592Z,61.41
2023-03-24T12:19:57.953Z,61.99
2023-03-24T12:22:54.824Z,61.49
2023-03-24T12:25:36.210Z,62.39
2023-03-24T12:28:27.478Z,61.59
2023-03-24T12:31:22.022Z,60.85
2023-03-24T12:34:11.279Z,61.33
2023-03-24T12:36:52.235Z,62.29
2023-03-24T12:39:43.869Z,60.68
2023-03-24T12:42:19.189Z,62.33
2023-03-24T12:45:16.486Z,62.62
2023-03-24T12:48:00.936Z,62.42
2023-03-24T12:50:36.188Z,60.52
2023-03-24T12:53:25.552Z,60.16
2023-03-24T12:55:57.635Z,58.00
2023-03-24T12:58:38.938Z,59.53
2023-03-24T13:01:29.794Z,57.17
2023-03-24T13:04:05.674Z,56.84
2023-03-24T13:06:48.254Z,54.53
2023-03-24T13:09:40.108Z,54.46
2023-03-24T13:12:18.465Z,54.00
2023-03-24T13:15:13.577Z,54.41
2023-03-24T13:17:48.492Z,54.27
2023-03-24T13:20:27.128Z,55.28
2023-03-24T13:22:58.842Z,54.85
2023-03-24T13:25:46.553Z,55.03
2023-03-24T13:28:20.940Z,55.23
2023-03-24T13:30:49.112Z,55.98
2023-03-24T13:33:25.124Z,56.41
2023-03-24T13:36:08.721Z,55.97
2023-03-24T13:38:43.486Z,56.30
2023-03-24T13:41:19.211Z,55.43
2023-03-24T13:43:48.446Z,55.78
2023-03-24T13:46:15.584Z,53.77
2023-03-24T13:48:45.227Z,55.58
2023-03-24T13:51:17.898Z,52.17
2023-03-24T13:53:59.998Z,53.94
2023-03-24T13:56:34.548Z,55.14
2023-03-24T13:59:01.445Z,54.71
2023-03-24T14:01:39.125Z,52.10
2023-03-24T14:04:23.000Z,52.90
2023-03-24T14:06:54.920Z,52.59
2023-03-24T14:09:27.300Z,54.34
2023-03-24T14:12:03.206Z,52.17
2023-03-24T14:14:34.147Z,52.52
2023-03-24T14:17:15.492Z,52.74
2023-03-24T14:20:05.200Z,53.90
2023-03-24T14:22:39.741Z,53.96
2023-03-24T14:25:22.310Z,51.68
2023-03-24T14:27:55.291Z,51.20
2023-03-24T14:30:30.347Z,52.97
2023-03-24T14:32:59.808Z,52.56
2023-03-24T14:35:34.597Z,52.36
2023-03-24T14:38:19.603Z,53.64
2023-03-24T14:40:49.502Z,53.96
2023-03-24T14:43:24.691Z,54.15
2023-03-24T14:46:00.246Z,54.77
2023-03-24T14:48:45.747Z,54.85
2023-03-24T14:51:36.699Z,55.16
2023-03-24T14:54:17.074Z,55.16
2023-03-24T14:56:49.099Z,55.64
2023-03-24T14:59:33.730Z,56.67
2023-03-24T15:02:12.086Z,55.77
2023-03-24T15:04:39.497Z,54.24
2023-03-24T15:07:06.445Z,55.64
2023-03-24T15:09:38.351Z,56.13
2023-03-24T15:12:05.546Z,56.14
2023-03-24T15:14:35.326Z,56.73
2023-03-24T15:17:08.854Z,55.58
2023-03-24T15:19:35.814Z,56.27
2023-03-24T15:22:05.909Z,56.27
2023-03-24T15:24:35.666Z,57.42
2023-03-24T15:27:06.366Z,57.02
2023-03-24T15:29:37.775Z,57.77
2023-03-24T15:32:05.808Z,56.82
2023-03-24T15:34:46.510Z,56.92
2023-03-24T15:37:24.931Z,57.22
2023-03-24T15:40:01.775Z,57.55
2023-03-24T15:42:32.738Z,57.17
2023-03-24T15:45:10.934Z,58.29
2023-03-24T15:47:41.322Z,57.30
2023-03-24T15:50:32.343Z,58.12
2023-03-24T15:53:19.227Z,57.13
2023-03-24T15:55:46.339Z,57.98
2023-03-24T15:58:25.406Z,56.65
2023-03-24T16:00:54.804Z,57.65
2023-03-24T16:03:26.205Z,58.50
2023-03-24T16:05:55.274Z,58.65
2023-03-24T16:08:27.713Z,58.87
2023-03-24T16:11:05.062Z,58.82
2023-03-24T16:13:31.718Z,59.17
2023-03-24T16:16:01.617Z,60.24
2023-03-24T16:18:37.529Z,61.47
2023-03-24T16:21:13.384Z,61.91
2023-03-24T16:23:42.229Z,63.11
2023-03-24T16:26:16.202Z,63.15
2023-03-24T16:28:43.526Z,63.85
2023-03-24T16:31:27.918Z,64.34
2023-03-24T16:33:57.270Z,64.30
2023-03-24T16:36:28.010Z,64.38
2023-03-24T16:38:56.780Z,65.07
2023-03-24T16:41:23.864Z,65.96
2023-03-24T16:43:50.579Z,66.45
2023-03-24T16:46:20.810Z,66.60
2023-03-24T16:48:47.534Z,65.80
2023-03-24T16:51:15.916Z,66.90
2023-03-24T16:53:43.845Z,66.36
2023-03-24T16:56:13.799Z,67.49
2023-03-24T16:58:40.917Z,67.49
2023-03-24T17:01:27.118Z,67.62
2023-03-24T17:03:55.380Z,68.00
2023-03-24T17:06:23.162Z,67.90
2023-03-24T17:08:50.208Z,68.34
2023-03-24T17:11:36.157Z,68.61
2023-03-24T17:14:08.471Z,68.65
2023-03-24T17:16:38.288Z,68.26
2023-03-24T17:19:07.804Z,68.53
2023-03-24T17:21:38.512Z,68.08
2023-03-24T17:24:10.765Z,68.15
2023-03-24T17:26:38.166Z,68.17
2023-03-24T17:29:04.883Z,68.38
2023-03-24T17:31:32.358Z,68.61
2023-03-24T17:34:03.794Z,68.82
2023-03-24T17:36:36.384Z,68.77
2023-03-24T17:39:04.932Z,68.72
2023-03-24T17:41:31.775Z,68.95
2023-03-24T17:43:58.420Z,69.15
2023-03-24T17:46:25.122Z,69.26
2023-03-24T17:48:51.815Z,69.65
2023-03-24T17:51:18.581Z,69.92
2023-03-24T17:53:46.464Z,70.33
2023-03-24T17:56:13.181Z,70.51
2023-03-24T17:58:39.852Z,70.37
2023-03-24T18:01:08.055Z,70.99
2023-03-24T18:03:37.637Z,70.54
2023-03-24T18:06:09.902Z,70.87
2023-03-24T18:08:37.288Z,71.33
2023-03-24T18:11:06.822Z,71.29
2023-03-24T18:13:34.079Z,72.34
2023-03-24T18:16:13.268Z,72.33
2023-03-24T18:18:47.374Z,72.00
2023-03-24T18:21:14.057Z,72.80
2023-03-24T18:23:40.708Z,72.50
2023-03-24T18:26:08.448Z,72.38
2023-03-24T18:28:39.822Z,72.45
2023-03-24T18:31:10.622Z,72.92
2023-03-24T18:33:37.323Z,72.76
2023-03-24T18:36:05.510Z,73.74
2023-03-24T18:38:32.198Z,74.17
2023-03-24T18:40:59.372Z,74.42
2023-03-24T18:43:26.370Z,74.11
2023-03-24T18:45:53.291Z,74.18
2023-03-24T18:48:20.524Z,74.16
2023-03-24T18:50:51.587Z,74.24
2023-03-24T18:53:22.172Z,74.26
2023-03-24T18:55:51.055Z,74.45
2023-03-24T18:58:18.256Z,74.17
2023-03-24T19:00:50.310Z,74.97
2023-03-24T19:03:18.360Z,74.37
2023-03-24T19:05:46.819Z,74.76
2023-03-24T19:08:14.716Z,75.21
2023-03-24T19:10:43.036Z,75.20
2023-03-24T19:13:12.545Z,75.36
2023-03-24T19:15:39.953Z,75.44
2023-03-24T19:18:07.516Z,75.69
2023-03-24T19:20:37.688Z,76.32
2023-03-24T19:23:04.385Z,75.41
2023-03-24T19:25:33.931Z,76.58
2023-03-24T19:28:00.682Z,76.91
2023-03-24T19:30:27.401Z,76.92
2023-03-24T19:32:54.688Z,77.95
2023-03-24T19:35:21.507Z,77.47
2023-03-24T19:37:48.249Z,76.88
2023-03-24T19:40:15.607Z,77.10
2023-03-24T19:42:44.760Z,77.47
2023-03-24T19:45:13.843Z,78.00
2023-03-24T19:47:40.756Z,77.90
2023-03-24T19:50:08.493Z,78.33
2023-03-24T19:52:35.908Z,78.84
2023-03-24T19:55:03.153Z,77.78
2023-03-24T19:57:31.697Z,77.92
2023-03-24T19:59:58.884Z,78.27
2023-03-24T20:02:25.863Z,78.02
2023-03-24T20:04:55.113Z,78.89
2023-03-24T20:07:23.121Z,78.42
2023-03-24T20:09:50.417Z,78.34
2023-03-24T20:12:18.472Z,78.91
2023-03-24T20:14:45.279Z,79.53
2023-03-24T20:17:18.460Z,79.18
2023-03-24T20:19:46.207Z,78.66
2023-03-24T20:22:14.419Z,78.98
2023-03-24T20:24:42.663Z,79.28
2023-03-24T20:27:09.360Z,79.45
2023-03-24T20:29:36.662Z,79.77
2023-03-24T20:32:03.531Z,79.24
2023-03-24T20:34:30.552Z,80.12
2023-03-24T20:36:57.748Z,80.18
2023-03-24T20:39:24.433Z,80.00
2023-03-24T20:41:51.166Z,80.76
2023-03-24T20:44:17.834Z,80.56
2023-03-24T20:46:45.926Z,81.11
2023-03-24T20:49:16.419Z,80.93
2023-03-24T20:51:44.304Z,81.25
2023-03-24T20:54:11.817Z,80.79
2023-03-24T20:56:38.494Z,81.13
2023-03-24T20:59:07.291Z,80.92
2023-03-24T21:01:36.083Z,81.23
2023-03-24T21:04:09.094Z,82.04
2023-03-24T21:06:38.126Z,81.64
2023-03-24T21:09:05.623Z,82.12
2023-03-24T21:11:33.228Z,81.43
2023-03-24T21:14:01.223Z,81.84
2023-03-24T21:16:28.592Z,81.73
2023-03-24T21:18:55.948Z,82.21
2023-03-24T21:21:22.778Z,82.45
2023-03-24T21:23:52.916Z,81.63
2023-03-24T21:26:19.968Z,81.41
2023-03-24T21:28:46.626Z,81.74
2023-03-24T21:31:21.425Z,81.15
2023-03-24T21:33:49.248Z,81.56
2023-03-24T21:36:16.853Z,82.37
2023-03-24T21:38:44.076Z,81.73
2023-03-24T21:41:11.414Z,81.99
2023-03-24T21:43:40.229Z,82.27
2023-03-24T21:46:14.832Z,82.10
2023-03-24T21:48:51.027Z,82.08
2023-03-24T21:51:20.295Z,82.28
2023-03-24T21:53:47.685Z,82.14
2023-03-24T21:56:14.870Z,82.24
2023-03-24T21:58:42.229Z,82.34
2023-03-24T22:01:09.611Z,82.83
2023-03-24T22:03:37.521Z,82.76
2023-03-24T22:06:10.390Z,83.13
2023-03-24T22:08:38.800Z,82.90
2023-03-24T22:11:06.153Z,82.69
2023-03-24T22:13:33.370Z,83.21
2023-03-24T22:16:02.501Z,83.03
2023-03-24T22:18:31.697Z,83.26
2023-03-24T22:21:03.024Z,83.39
2023-03-24T22:23:35.961Z,83.56
2023-03-24T22:26:06.335Z,83.77
2023-03-24T22:28:34.281Z,83.68
2023-03-24T22:31:11.869Z,83.36
2023-03-24T22:33:39.751Z,84.02
2023-03-24T22:36:07.398Z,84.03
2023-03-24T22:38:34.465Z,83.95
2023-03-24T22:41:06.468Z,84.18
2023-03-24T22:43:33.442Z,84.30
2023-03-24T22:46:00.280Z,84.41
2023-03-24T22:48:27.024Z,85.65
2023-03-24T22:50:53.872Z,85.39
2023-03-24T22:53:20.766Z,85.82
2023-03-24T22:55:48.286Z,85.49
2023-03-24T22:58:15.304Z,85.71
2023-03-24T23:00:43.833Z,85.69
2023-03-24T23:03:11.416Z,85.84
2023-03-24T23:05:45.833Z,85.60
2023-03-24T23:08:14.991Z,85.26
2023-03-24T23:10:43.598Z,85.72
2023-03-24T23:13:10.794Z,85.91
2023-03-24T23:15:39.025Z,85.87
2023-03-24T23:18:05.885Z,86.05
2023-03-24T23:20:32.988Z,85.90
2023-03-24T23:23:01.063Z,86.42
2023-03-24T23:25:30.725Z,86.14
2023-03-24T23:27:58.073Z,86.24
2023-03-24T23:30:24.948Z,86.01
2023-03-24T23:32:51.796Z,86.20
2023-03-24T23:35:18.733Z,86.03
2023-03-24T23:37:45.481Z,86.54
2023-03-24T23:40:15.478Z,86.69
2023-03-24T23:42:46.156Z,86.59
2023-03-24T23:45:15.536Z,86.68
2023-03-24T23:47:43.641Z,86.56
2023-03-24T23:50:11.444Z,86.67
2023-03-24T23:52:41.248Z,86.78
2023-03-24T23:55:10.142Z,87.01
2023-03-24T23:57:41.539Z,86.89
